sensor_id;sensor_type;location;lat;lon;timestamp;pressure;altitude;pressure_sealevel;temperature;humidity
82949;BME280;72736;50.236;18.876;2023-12-20T00:01:36;98209.89;;;6.66;61.82
82949;BME280;72736;50.236;18.876;2023-12-20T00:06:41;98197.77;;;6.61;61.78
82949;BME280;72736;50.236;18.876;2023-12-20T00:11:47;98199.13;;;6.58;62.45
82949;BME280;72736;50.236;18.876;2023-12-20T00:16:53;98186.48;;;6.54;63.30
82949;BME280;72736;50.236;18.876;2023-12-20T00:21:59;98169.45;;;6.50;63.23
82949;BME280;72736;50.236;18.876;2023-12-20T00:27:05;98161.52;;;6.48;62.99
82949;BME280;72736;50.236;18.876;2023-12-20T00:32:11;98172.44;;;6.43;61.80
82949;BME280;72736;50.236;18.876;2023-12-20T00:37:16;98168.55;;;6.39;61.42
82949;BME280;72736;50.236;18.876;2023-12-20T00:42:22;98174.94;;;6.39;61.14
82949;BME280;72736;50.236;18.876;2023-12-20T00:47:28;98167.96;;;6.42;60.43
82949;BME280;72736;50.236;18.876;2023-12-20T00:52:33;98162.08;;;6.43;59.70
82949;BME280;72736;50.236;18.876;2023-12-20T00:57:39;98139.11;;;6.46;58.91
82949;BME280;72736;50.236;18.876;2023-12-20T01:02:44;98122.50;;;6.49;58.22
82949;BME280;72736;50.236;18.876;2023-12-20T01:07:51;98110.27;;;6.46;57.50
82949;BME280;72736;50.236;18.876;2023-12-20T01:12:56;98117.55;;;6.45;57.20
82949;BME280;72736;50.236;18.876;2023-12-20T01:18:02;98110.02;;;6.45;56.78
82949;BME280;72736;50.236;18.876;2023-12-20T01:23:09;98094.52;;;6.46;56.58
82949;BME280;72736;50.236;18.876;2023-12-20T01:28:14;98094.34;;;6.48;56.48
82949;BME280;72736;50.236;18.876;2023-12-20T01:33:20;98078.86;;;6.49;55.96
82949;BME280;72736;50.236;18.876;2023-12-20T01:38:26;98074.89;;;6.49;55.90
82949;BME280;72736;50.236;18.876;2023-12-20T01:43:32;98096.50;;;6.49;55.96
82949;BME280;72736;50.236;18.876;2023-12-20T01:48:53;98095.93;;;6.48;55.40
82949;BME280;72736;50.236;18.876;2023-12-20T01:54:00;98101.49;;;6.49;55.33
82949;BME280;72736;50.236;18.876;2023-12-20T01:59:07;98081.15;;;6.50;55.31
82949;BME280;72736;50.236;18.876;2023-12-20T02:04:14;98083.48;;;6.50;55.02
82949;BME280;72736;50.236;18.876;2023-12-20T02:09:21;98064.89;;;6.51;55.31
82949;BME280;72736;50.236;18.876;2023-12-20T02:14:27;98066.58;;;6.53;55.50
82949;BME280;72736;50.236;18.876;2023-12-20T02:19:33;98076.64;;;6.54;55.78
82949;BME280;72736;50.236;18.876;2023-12-20T02:24:39;98072.47;;;6.57;55.61
82949;BME280;72736;50.236;18.876;2023-12-20T02:29:45;98074.20;;;6.58;55.67
82949;BME280;72736;50.236;18.876;2023-12-20T02:34:52;98075.98;;;6.58;55.62
82949;BME280;72736;50.236;18.876;2023-12-20T02:39:57;98069.31;;;6.55;55.57
82949;BME280;72736;50.236;18.876;2023-12-20T02:45:04;98065.59;;;6.54;55.66
82949;BME280;72736;50.236;18.876;2023-12-20T02:50:10;98046.77;;;6.51;55.57
82949;BME280;72736;50.236;18.876;2023-12-20T02:55:16;98058.43;;;6.49;55.18
82949;BME280;72736;50.236;18.876;2023-12-20T03:00:22;98048.69;;;6.47;56.84
82949;BME280;72736;50.236;18.876;2023-12-20T03:05:28;98044.53;;;6.43;59.52
82949;BME280;72736;50.236;18.876;2023-12-20T03:10:34;98052.51;;;6.31;61.20
82949;BME280;72736;50.236;18.876;2023-12-20T03:15:40;98050.52;;;6.19;62.98
82949;BME280;72736;50.236;18.876;2023-12-20T03:20:45;98052.14;;;6.09;64.17
82949;BME280;72736;50.236;18.876;2023-12-20T03:25:54;98049.91;;;5.98;65.29
82949;BME280;72736;50.236;18.876;2023-12-20T03:31:00;98048.05;;;5.91;66.35
82949;BME280;72736;50.236;18.876;2023-12-20T03:36:07;98055.41;;;5.84;67.13
82949;BME280;72736;50.236;18.876;2023-12-20T03:41:13;98053.77;;;5.77;67.98
82949;BME280;72736;50.236;18.876;2023-12-20T03:46:18;98049.52;;;5.72;68.65
82949;BME280;72736;50.236;18.876;2023-12-20T03:51:24;98056.71;;;5.67;69.13
82949;BME280;72736;50.236;18.876;2023-12-20T03:56:30;98058.92;;;5.64;69.28
82949;BME280;72736;50.236;18.876;2023-12-20T04:01:35;98057.89;;;5.62;69.56
82949;BME280;72736;50.236;18.876;2023-12-20T04:06:41;98060.02;;;5.59;69.37
82949;BME280;72736;50.236;18.876;2023-12-20T04:11:47;98062.42;;;5.56;69.87
82949;BME280;72736;50.236;18.876;2023-12-20T04:16:53;98062.08;;;5.52;69.96
82949;BME280;72736;50.236;18.876;2023-12-20T04:21:59;98064.89;;;5.45;70.06
82949;BME280;72736;50.236;18.876;2023-12-20T04:27:05;98063.57;;;5.38;70.55
82949;BME280;72736;50.236;18.876;2023-12-20T04:32:11;98070.09;;;5.33;70.76
82949;BME280;72736;50.236;18.876;2023-12-20T04:37:16;98068.09;;;5.28;71.11
82949;BME280;72736;50.236;18.876;2023-12-20T04:42:22;98057.52;;;5.23;71.38
82949;BME280;72736;50.236;18.876;2023-12-20T04:47:28;98050.83;;;5.17;71.66
82949;BME280;72736;50.236;18.876;2023-12-20T04:52:34;98045.00;;;5.13;72.00
82949;BME280;72736;50.236;18.876;2023-12-20T04:57:40;98039.20;;;5.09;72.26
82949;BME280;72736;50.236;18.876;2023-12-20T05:02:47;98031.35;;;5.07;72.58
82949;BME280;72736;50.236;18.876;2023-12-20T05:07:53;98028.98;;;5.06;72.86
82949;BME280;72736;50.236;18.876;2023-12-20T05:12:59;98028.66;;;5.04;73.02
82949;BME280;72736;50.236;18.876;2023-12-20T05:18:05;98032.89;;;5.03;73.20
82949;BME280;72736;50.236;18.876;2023-12-20T05:23:11;98035.08;;;5.01;73.37
82949;BME280;72736;50.236;18.876;2023-12-20T05:28:17;98039.77;;;4.99;73.65
82949;BME280;72736;50.236;18.876;2023-12-20T05:33:23;98039.30;;;4.94;73.31
82949;BME280;72736;50.236;18.876;2023-12-20T05:38:29;98035.84;;;4.93;73.76
82949;BME280;72736;50.236;18.876;2023-12-20T05:43:35;98033.38;;;4.91;73.53
82949;BME280;72736;50.236;18.876;2023-12-20T05:48:40;98029.07;;;4.87;73.70
82949;BME280;72736;50.236;18.876;2023-12-20T05:53:46;98026.77;;;4.82;73.69
82949;BME280;72736;50.236;18.876;2023-12-20T05:58:54;98033.20;;;4.78;73.66
82949;BME280;72736;50.236;18.876;2023-12-20T06:04:00;98030.98;;;4.75;73.95
82949;BME280;72736;50.236;18.876;2023-12-20T06:09:08;98032.94;;;4.72;74.01
82949;BME280;72736;50.236;18.876;2023-12-20T06:14:13;98039.25;;;4.69;74.33
82949;BME280;72736;50.236;18.876;2023-12-20T06:19:19;98031.84;;;4.65;74.31
82949;BME280;72736;50.236;18.876;2023-12-20T06:24:25;98034.06;;;4.65;74.65
82949;BME280;72736;50.236;18.876;2023-12-20T06:29:32;98041.89;;;4.66;74.76
82949;BME280;72736;50.236;18.876;2023-12-20T06:34:39;98045.60;;;4.63;75.13
82949;BME280;72736;50.236;18.876;2023-12-20T06:39:44;98048.98;;;4.63;75.31
82949;BME280;72736;50.236;18.876;2023-12-20T06:44:50;98055.80;;;4.64;75.32
82949;BME280;72736;50.236;18.876;2023-12-20T06:49:56;98059.84;;;4.64;75.51
82949;BME280;72736;50.236;18.876;2023-12-20T06:55:03;98059.47;;;4.64;75.73
82949;BME280;72736;50.236;18.876;2023-12-20T07:00:11;98057.51;;;4.63;75.64
82949;BME280;72736;50.236;18.876;2023-12-20T07:05:19;98065.09;;;4.60;75.67
82949;BME280;72736;50.236;18.876;2023-12-20T07:10:24;98068.02;;;4.58;75.86
82949;BME280;72736;50.236;18.876;2023-12-20T07:15:30;98065.62;;;4.59;76.30
82949;BME280;72736;50.236;18.876;2023-12-20T07:20:36;98066.56;;;4.60;76.11
82949;BME280;72736;50.236;18.876;2023-12-20T07:25:41;98072.02;;;4.61;76.25
82949;BME280;72736;50.236;18.876;2023-12-20T07:30:47;98074.56;;;4.61;76.45
82949;BME280;72736;50.236;18.876;2023-12-20T07:35:53;98074.04;;;4.55;76.48
82949;BME280;72736;50.236;18.876;2023-12-20T07:40:59;98080.01;;;4.50;76.74
82949;BME280;72736;50.236;18.876;2023-12-20T07:46:08;98084.73;;;4.47;76.91
82949;BME280;72736;50.236;18.876;2023-12-20T07:51:14;98081.28;;;4.44;77.14
82949;BME280;72736;50.236;18.876;2023-12-20T07:56:21;98088.61;;;4.43;77.23
82949;BME280;72736;50.236;18.876;2023-12-20T08:01:27;98086.46;;;4.46;77.53
82949;BME280;72736;50.236;18.876;2023-12-20T08:06:32;98081.42;;;4.48;77.38
82949;BME280;72736;50.236;18.876;2023-12-20T08:11:38;98079.05;;;4.46;77.40
82949;BME280;72736;50.236;18.876;2023-12-20T08:16:44;98084.86;;;4.42;77.51
82949;BME280;72736;50.236;18.876;2023-12-20T08:21:50;98083.79;;;4.41;77.38
82949;BME280;72736;50.236;18.876;2023-12-20T08:26:55;98077.71;;;4.41;77.64
82949;BME280;72736;50.236;18.876;2023-12-20T08:32:02;98077.31;;;4.42;77.79
82949;BME280;72736;50.236;18.876;2023-12-20T08:37:08;98076.34;;;4.43;77.84
82949;BME280;72736;50.236;18.876;2023-12-20T08:42:14;98083.63;;;4.42;77.68
82949;BME280;72736;50.236;18.876;2023-12-20T08:47:20;98092.14;;;4.39;78.11
82949;BME280;72736;50.236;18.876;2023-12-20T08:52:25;98092.84;;;4.39;78.10
82949;BME280;72736;50.236;18.876;2023-12-20T08:57:32;98093.75;;;4.42;78.29
82949;BME280;72736;50.236;18.876;2023-12-20T09:02:38;98095.31;;;4.43;78.22
82949;BME280;72736;50.236;18.876;2023-12-20T09:07:44;98092.25;;;4.44;78.27
82949;BME280;72736;50.236;18.876;2023-12-20T09:12:51;98090.23;;;4.44;78.57
82949;BME280;72736;50.236;18.876;2023-12-20T09:18:00;98084.27;;;4.47;78.64
82949;BME280;72736;50.236;18.876;2023-12-20T09:23:07;98078.34;;;4.49;78.40
82949;BME280;72736;50.236;18.876;2023-12-20T09:28:12;98083.92;;;4.51;78.68
82949;BME280;72736;50.236;18.876;2023-12-20T09:33:18;98078.40;;;4.54;78.73
82949;BME280;72736;50.236;18.876;2023-12-20T09:38:24;98078.89;;;4.53;78.70
82949;BME280;72736;50.236;18.876;2023-12-20T09:43:30;98072.86;;;4.52;78.95
82949;BME280;72736;50.236;18.876;2023-12-20T09:48:35;98068.66;;;4.50;78.90
82949;BME280;72736;50.236;18.876;2023-12-20T09:53:43;98067.91;;;4.48;79.05
82949;BME280;72736;50.236;18.876;2023-12-20T09:58:50;98060.98;;;4.46;79.24
82949;BME280;72736;50.236;18.876;2023-12-20T10:03:56;98059.98;;;4.46;79.13
82949;BME280;72736;50.236;18.876;2023-12-20T10:09:03;98057.46;;;4.47;79.32
82949;BME280;72736;50.236;18.876;2023-12-20T10:14:12;98056.88;;;4.49;78.96
82949;BME280;72736;50.236;18.876;2023-12-20T10:19:20;98060.66;;;4.50;79.06
82949;BME280;72736;50.236;18.876;2023-12-20T10:24:27;98057.44;;;4.51;79.69
82949;BME280;72736;50.236;18.876;2023-12-20T10:29:34;98057.94;;;4.49;79.33
82949;BME280;72736;50.236;18.876;2023-12-20T10:34:42;98059.23;;;4.51;79.22
82949;BME280;72736;50.236;18.876;2023-12-20T10:39:51;98061.92;;;4.49;79.28
82949;BME280;72736;50.236;18.876;2023-12-20T10:45:00;98064.12;;;4.47;79.46
82949;BME280;72736;50.236;18.876;2023-12-20T10:50:08;98060.03;;;4.44;79.84
82949;BME280;72736;50.236;18.876;2023-12-20T10:55:14;98063.78;;;4.45;79.90
82949;BME280;72736;50.236;18.876;2023-12-20T11:00:22;98056.93;;;4.46;79.94
82949;BME280;72736;50.236;18.876;2023-12-20T11:05:36;98056.89;;;4.48;79.91
82949;BME280;72736;50.236;18.876;2023-12-20T11:10:51;98059.90;;;4.51;79.94
82949;BME280;72736;50.236;18.876;2023-12-20T11:16:01;98047.86;;;4.54;80.04
82949;BME280;72736;50.236;18.876;2023-12-20T11:21:07;98045.77;;;4.56;80.25
82949;BME280;72736;50.236;18.876;2023-12-20T11:26:16;98036.74;;;4.58;80.45
82949;BME280;72736;50.236;18.876;2023-12-20T11:31:28;98033.04;;;4.59;80.23
82949;BME280;72736;50.236;18.876;2023-12-20T11:36:33;98031.79;;;4.61;80.32
82949;BME280;72736;50.236;18.876;2023-12-20T11:41:39;98038.60;;;4.61;80.34
82949;BME280;72736;50.236;18.876;2023-12-20T11:46:45;98036.40;;;4.61;80.10
82949;BME280;72736;50.236;18.876;2023-12-20T11:51:51;98034.88;;;4.59;80.25
82949;BME280;72736;50.236;18.876;2023-12-20T11:56:57;98035.31;;;4.55;80.27
82949;BME280;72736;50.236;18.876;2023-12-20T12:02:03;98028.04;;;4.54;80.42
82949;BME280;72736;50.236;18.876;2023-12-20T12:07:09;98022.36;;;4.56;80.49
82949;BME280;72736;50.236;18.876;2023-12-20T12:12:16;98014.56;;;4.57;80.62
82949;BME280;72736;50.236;18.876;2023-12-20T12:17:23;98026.44;;;4.62;80.99
82949;BME280;72736;50.236;18.876;2023-12-20T12:22:29;98017.37;;;4.67;80.84
82949;BME280;72736;50.236;18.876;2023-12-20T12:27:35;98015.99;;;4.71;80.84
82949;BME280;72736;50.236;18.876;2023-12-20T12:32:42;98010.16;;;4.73;80.32
82949;BME280;72736;50.236;18.876;2023-12-20T12:37:49;98009.00;;;4.77;80.43
82949;BME280;72736;50.236;18.876;2023-12-20T12:42:55;98005.82;;;4.80;80.15
82949;BME280;72736;50.236;18.876;2023-12-20T12:48:00;98012.66;;;4.83;80.66
82949;BME280;72736;50.236;18.876;2023-12-20T12:53:06;98017.64;;;4.84;80.22
82949;BME280;72736;50.236;18.876;2023-12-20T12:58:12;98016.12;;;4.82;80.57
82949;BME280;72736;50.236;18.876;2023-12-20T13:03:18;98010.39;;;4.81;80.39
82949;BME280;72736;50.236;18.876;2023-12-20T13:08:24;98005.25;;;4.80;80.46
82949;BME280;72736;50.236;18.876;2023-12-20T13:13:30;97997.57;;;4.79;80.01
82949;BME280;72736;50.236;18.876;2023-12-20T13:18:36;97996.05;;;4.77;80.08
82949;BME280;72736;50.236;18.876;2023-12-20T13:23:42;97993.77;;;4.74;80.07
82949;BME280;72736;50.236;18.876;2023-12-20T13:28:48;97984.78;;;4.75;80.19
82949;BME280;72736;50.236;18.876;2023-12-20T13:33:54;97988.52;;;4.77;80.00
82949;BME280;72736;50.236;18.876;2023-12-20T13:39:00;97991.80;;;4.74;79.96
82949;BME280;72736;50.236;18.876;2023-12-20T13:44:07;98000.20;;;4.74;80.06
82949;BME280;72736;50.236;18.876;2023-12-20T13:49:13;97995.09;;;4.70;79.91
82949;BME280;72736;50.236;18.876;2023-12-20T13:54:19;98003.16;;;4.64;80.11
82949;BME280;72736;50.236;18.876;2023-12-20T13:59:26;98000.85;;;4.59;80.18
82949;BME280;72736;50.236;18.876;2023-12-20T14:04:32;98008.27;;;4.57;80.41
82949;BME280;72736;50.236;18.876;2023-12-20T14:09:47;98002.60;;;4.57;80.47
82949;BME280;72736;50.236;18.876;2023-12-20T14:14:52;97993.89;;;4.56;80.44
82949;BME280;72736;50.236;18.876;2023-12-20T14:20:00;97988.20;;;4.50;80.43
82949;BME280;72736;50.236;18.876;2023-12-20T14:25:07;97991.04;;;4.47;80.35
82949;BME280;72736;50.236;18.876;2023-12-20T14:30:15;97991.67;;;4.42;80.36
82949;BME280;72736;50.236;18.876;2023-12-20T14:35:21;97982.28;;;4.39;80.20
82949;BME280;72736;50.236;18.876;2023-12-20T14:40:27;97989.80;;;4.34;80.05
82949;BME280;72736;50.236;18.876;2023-12-20T14:45:34;97992.81;;;4.26;79.86
82949;BME280;72736;50.236;18.876;2023-12-20T14:50:38;98011.52;;;4.23;79.50
82949;BME280;72736;50.236;18.876;2023-12-20T14:55:45;98016.34;;;4.18;79.47
82949;BME280;72736;50.236;18.876;2023-12-20T15:00:51;98018.16;;;4.15;79.87
82949;BME280;72736;50.236;18.876;2023-12-20T15:05:57;98002.52;;;4.16;79.88
82949;BME280;72736;50.236;18.876;2023-12-20T15:11:04;97991.98;;;4.17;79.57
82949;BME280;72736;50.236;18.876;2023-12-20T15:16:09;97989.45;;;4.14;79.81
82949;BME280;72736;50.236;18.876;2023-12-20T15:21:15;97996.48;;;4.11;79.70
82949;BME280;72736;50.236;18.876;2023-12-20T15:26:21;98002.50;;;4.08;79.61
82949;BME280;72736;50.236;18.876;2023-12-20T15:31:27;97988.84;;;4.07;79.85
82949;BME280;72736;50.236;18.876;2023-12-20T15:36:33;97992.95;;;4.06;79.51
82949;BME280;72736;50.236;18.876;2023-12-20T15:41:40;97986.25;;;4.04;79.58
82949;BME280;72736;50.236;18.876;2023-12-20T15:46:45;97986.89;;;4.02;80.00
82949;BME280;72736;50.236;18.876;2023-12-20T15:51:51;97984.04;;;4.02;79.90
82949;BME280;72736;50.236;18.876;2023-12-20T15:56:57;97981.21;;;4.01;80.05
82949;BME280;72736;50.236;18.876;2023-12-20T16:02:03;97979.05;;;4.00;79.94
82949;BME280;72736;50.236;18.876;2023-12-20T16:07:09;97980.90;;;3.98;80.03
82949;BME280;72736;50.236;18.876;2023-12-20T16:12:15;97982.52;;;3.98;80.02
82949;BME280;72736;50.236;18.876;2023-12-20T16:17:21;97992.16;;;3.98;80.04
82949;BME280;72736;50.236;18.876;2023-12-20T16:22:26;97992.64;;;3.98;79.76
82949;BME280;72736;50.236;18.876;2023-12-20T16:27:32;97983.13;;;3.96;80.00
82949;BME280;72736;50.236;18.876;2023-12-20T16:32:38;97983.65;;;3.91;79.77
82949;BME280;72736;50.236;18.876;2023-12-20T16:37:44;97984.02;;;3.86;79.89
82949;BME280;72736;50.236;18.876;2023-12-20T16:42:51;97979.58;;;3.82;79.80
82949;BME280;72736;50.236;18.876;2023-12-20T16:47:57;97986.93;;;3.78;79.72
82949;BME280;72736;50.236;18.876;2023-12-20T16:53:03;97985.58;;;3.76;79.90
82949;BME280;72736;50.236;18.876;2023-12-20T16:58:09;97982.19;;;3.75;80.07
82949;BME280;72736;50.236;18.876;2023-12-20T17:03:16;97990.77;;;3.76;79.88
82949;BME280;72736;50.236;18.876;2023-12-20T17:08:24;97995.15;;;3.76;79.73
82949;BME280;72736;50.236;18.876;2023-12-20T17:13:30;97985.31;;;3.75;80.01
82949;BME280;72736;50.236;18.876;2023-12-20T17:18:37;97980.64;;;3.76;79.86
82949;BME280;72736;50.236;18.876;2023-12-20T17:23:44;97974.23;;;3.76;79.58
82949;BME280;72736;50.236;18.876;2023-12-20T17:28:50;97969.77;;;3.77;79.60
82949;BME280;72736;50.236;18.876;2023-12-20T17:33:56;97966.83;;;3.76;79.53
82949;BME280;72736;50.236;18.876;2023-12-20T17:39:02;97969.19;;;3.77;79.49
82949;BME280;72736;50.236;18.876;2023-12-20T17:44:09;97970.19;;;3.79;79.31
82949;BME280;72736;50.236;18.876;2023-12-20T17:49:17;97958.23;;;3.83;79.26
82949;BME280;72736;50.236;18.876;2023-12-20T17:54:23;97958.11;;;3.84;78.97
82949;BME280;72736;50.236;18.876;2023-12-20T17:59:30;97960.81;;;3.85;78.93
82949;BME280;72736;50.236;18.876;2023-12-20T18:04:36;97971.45;;;3.86;78.51
82949;BME280;72736;50.236;18.876;2023-12-20T18:09:41;97972.15;;;3.86;78.30
82949;BME280;72736;50.236;18.876;2023-12-20T18:14:47;97960.78;;;3.85;78.17
82949;BME280;72736;50.236;18.876;2023-12-20T18:19:55;97950.30;;;3.84;78.12
82949;BME280;72736;50.236;18.876;2023-12-20T18:25:05;97951.93;;;3.85;77.78
82949;BME280;72736;50.236;18.876;2023-12-20T18:30:12;97957.88;;;3.86;77.92
82949;BME280;72736;50.236;18.876;2023-12-20T18:35:20;97963.80;;;3.85;77.81
82949;BME280;72736;50.236;18.876;2023-12-20T18:40:26;97965.79;;;3.86;77.79
82949;BME280;72736;50.236;18.876;2023-12-20T18:45:33;97966.73;;;3.87;77.67
82949;BME280;72736;50.236;18.876;2023-12-20T18:50:39;97967.08;;;3.88;77.65
82949;BME280;72736;50.236;18.876;2023-12-20T18:55:45;97951.25;;;3.88;77.49
82949;BME280;72736;50.236;18.876;2023-12-20T19:00:51;97934.17;;;3.86;77.14
82949;BME280;72736;50.236;18.876;2023-12-20T19:05:57;97940.63;;;3.84;77.11
82949;BME280;72736;50.236;18.876;2023-12-20T19:11:06;97940.86;;;3.82;76.80
82949;BME280;72736;50.236;18.876;2023-12-20T19:16:12;97949.89;;;3.80;76.72
82949;BME280;72736;50.236;18.876;2023-12-20T19:21:18;97949.48;;;3.83;76.56
82949;BME280;72736;50.236;18.876;2023-12-20T19:26:24;97950.70;;;3.84;76.63
82949;BME280;72736;50.236;18.876;2023-12-20T19:31:29;97953.50;;;3.83;76.53
82949;BME280;72736;50.236;18.876;2023-12-20T19:36:35;97947.01;;;3.81;76.43
82949;BME280;72736;50.236;18.876;2023-12-20T19:41:41;97943.23;;;3.79;76.25
82949;BME280;72736;50.236;18.876;2023-12-20T19:46:47;97935.11;;;3.74;76.52
82949;BME280;72736;50.236;18.876;2023-12-20T19:51:54;97944.02;;;3.72;76.32
82949;BME280;72736;50.236;18.876;2023-12-20T19:57:00;97946.34;;;3.71;76.38
82949;BME280;72736;50.236;18.876;2023-12-20T20:02:05;97948.42;;;3.69;76.38
82949;BME280;72736;50.236;18.876;2023-12-20T20:07:12;97950.91;;;3.67;76.26
82949;BME280;72736;50.236;18.876;2023-12-20T20:12:19;97952.79;;;3.66;76.32
82949;BME280;72736;50.236;18.876;2023-12-20T20:17:25;97944.79;;;3.65;75.83
82949;BME280;72736;50.236;18.876;2023-12-20T20:22:31;97939.53;;;3.64;75.74
82949;BME280;72736;50.236;18.876;2023-12-20T20:27:38;97932.05;;;3.66;75.75
82949;BME280;72736;50.236;18.876;2023-12-20T20:32:44;97948.33;;;3.66;75.54
82949;BME280;72736;50.236;18.876;2023-12-20T20:37:54;97967.35;;;3.65;75.55
82949;BME280;72736;50.236;18.876;2023-12-20T20:43:00;97958.42;;;3.63;75.41
82949;BME280;72736;50.236;18.876;2023-12-20T20:48:08;97951.42;;;3.61;75.40
82949;BME280;72736;50.236;18.876;2023-12-20T20:53:33;97932.27;;;3.59;75.45
82949;BME280;72736;50.236;18.876;2023-12-20T20:58:39;97941.92;;;3.58;75.20
82949;BME280;72736;50.236;18.876;2023-12-20T21:03:46;97934.55;;;3.59;75.22
82949;BME280;72736;50.236;18.876;2023-12-20T21:08:52;97944.17;;;3.59;75.02
82949;BME280;72736;50.236;18.876;2023-12-20T21:13:58;97935.81;;;3.59;74.98
82949;BME280;72736;50.236;18.876;2023-12-20T21:19:04;97937.23;;;3.62;75.23
82949;BME280;72736;50.236;18.876;2023-12-20T21:24:11;97943.19;;;3.63;75.06
82949;BME280;72736;50.236;18.876;2023-12-20T21:29:19;97935.21;;;3.65;74.98
82949;BME280;72736;50.236;18.876;2023-12-20T21:34:24;97932.11;;;3.66;74.97
82949;BME280;72736;50.236;18.876;2023-12-20T21:39:30;97930.37;;;3.65;74.85
82949;BME280;72736;50.236;18.876;2023-12-20T21:44:36;97932.36;;;3.65;74.94
82949;BME280;72736;50.236;18.876;2023-12-20T21:49:42;97919.39;;;3.64;75.07
82949;BME280;72736;50.236;18.876;2023-12-20T21:54:47;97922.45;;;3.64;74.98
82949;BME280;72736;50.236;18.876;2023-12-20T21:59:53;97925.89;;;3.66;74.91
82949;BME280;72736;50.236;18.876;2023-12-20T22:04:59;97923.83;;;3.70;74.99
82949;BME280;72736;50.236;18.876;2023-12-20T22:10:06;97917.86;;;3.72;75.15
82949;BME280;72736;50.236;18.876;2023-12-20T22:15:12;97916.22;;;3.77;75.19
82949;BME280;72736;50.236;18.876;2023-12-20T22:20:18;97916.63;;;3.79;75.14
82949;BME280;72736;50.236;18.876;2023-12-20T22:25:24;97907.20;;;3.82;74.95
82949;BME280;72736;50.236;18.876;2023-12-20T22:30:30;97910.83;;;3.81;74.90
82949;BME280;72736;50.236;18.876;2023-12-20T22:35:35;97908.56;;;3.79;75.00
82949;BME280;72736;50.236;18.876;2023-12-20T22:40:41;97904.36;;;3.77;75.02
82949;BME280;72736;50.236;18.876;2023-12-20T22:45:47;97911.62;;;3.79;75.05
82949;BME280;72736;50.236;18.876;2023-12-20T22:50:53;97912.60;;;3.79;75.24
82949;BME280;72736;50.236;18.876;2023-12-20T22:55:58;97904.25;;;3.78;75.28
82949;BME280;72736;50.236;18.876;2023-12-20T23:01:04;97897.42;;;3.77;75.18
82949;BME280;72736;50.236;18.876;2023-12-20T23:06:11;97888.20;;;3.73;75.10
82949;BME280;72736;50.236;18.876;2023-12-20T23:11:18;97883.83;;;3.71;75.09
82949;BME280;72736;50.236;18.876;2023-12-20T23:16:23;97880.08;;;3.69;75.46
82949;BME280;72736;50.236;18.876;2023-12-20T23:21:29;97871.17;;;3.68;75.19
82949;BME280;72736;50.236;18.876;2023-12-20T23:26:35;97855.92;;;3.66;75.17
82949;BME280;72736;50.236;18.876;2023-12-20T23:31:42;97849.89;;;3.65;75.26
82949;BME280;72736;50.236;18.876;2023-12-20T23:36:48;97838.48;;;3.65;75.37
82949;BME280;72736;50.236;18.876;2023-12-20T23:41:54;97833.42;;;3.64;75.30
82949;BME280;72736;50.236;18.876;2023-12-20T23:46:59;97829.23;;;3.63;75.67
82949;BME280;72736;50.236;18.876;2023-12-20T23:52:05;97827.84;;;3.62;75.63
82949;BME280;72736;50.236;18.876;2023-12-20T23:57:12;97814.63;;;3.62;75.40
